sensor_id;sensor_type;location;lat;lon;timestamp;P1;durP1;ratioP1;P2;durP2;ratioP2
23304;SDS011;11821;51.456;8.844;2022-08-26T00:01:42;9.60;;;8.52;;
23304;SDS011;11821;51.456;8.844;2022-08-26T00:04:09;9.35;;;8.35;;
23304;SDS011;11821;51.456;8.844;2022-08-26T00:06:36;10.65;;;9.52;;
23304;SDS011;11821;51.456;8.844;2022-08-26T00:09:03;10.73;;;9.52;;
23304;SDS011;11821;51.456;8.844;2022-08-26T00:11:30;11.95;;;9.38;;
23304;SDS011;11821;51.456;8.844;2022-08-26T00:13:57;9.35;;;8.45;;
23304;SDS011;11821;51.456;8.844;2022-08-26T00:16:24;14.23;;;9.68;;
23304;SDS011;11821;51.456;8.844;2022-08-26T00:18:52;13.63;;;9.10;;
23304;SDS011;11821;51.456;8.844;2022-08-26T00:21:19;10.45;;;9.55;;
23304;SDS011;11821;51.456;8.844;2022-08-26T00:23:45;9.85;;;9.05;;
23304;SDS011;11821;51.456;8.844;2022-08-26T00:26:12;10.23;;;9.32;;
23304;SDS011;11821;51.456;8.844;2022-08-26T00:28:39;10.52;;;9.52;;
23304;SDS011;11821;51.456;8.844;2022-08-26T00:31:06;9.90;;;9.02;;
23304;SDS011;11821;51.456;8.844;2022-08-26T00:33:32;9.80;;;8.90;;
23304;SDS011;11821;51.456;8.844;2022-08-26T00:35:59;10.13;;;9.13;;
23304;SDS011;11821;51.456;8.844;2022-08-26T00:38:26;9.52;;;8.63;;
23304;SDS011;11821;51.456;8.844;2022-08-26T00:40:53;10.27;;;9.38;;
23304;SDS011;11821;51.456;8.844;2022-08-26T00:43:21;9.05;;;8.15;;
23304;SDS011;11821;51.456;8.844;2022-08-26T00:48:25;11.15;;;10.02;;
23304;SDS011;11821;51.456;8.844;2022-08-26T00:51:16;9.75;;;8.85;;
23304;SDS011;11821;51.456;8.844;2022-08-26T00:53:51;12.88;;;10.02;;
23304;SDS011;11821;51.456;8.844;2022-08-26T00:56:23;10.18;;;9.10;;
23304;SDS011;11821;51.456;8.844;2022-08-26T00:58:59;11.02;;;9.57;;
23304;SDS011;11821;51.456;8.844;2022-08-26T01:01:29;10.32;;;9.40;;
23304;SDS011;11821;51.456;8.844;2022-08-26T01:03:55;9.90;;;9.02;;
23304;SDS011;11821;51.456;8.844;2022-08-26T01:06:22;9.73;;;8.55;;
23304;SDS011;11821;51.456;8.844;2022-08-26T01:08:49;9.50;;;8.70;;
23304;SDS011;11821;51.456;8.844;2022-08-26T01:11:16;12.20;;;9.93;;
23304;SDS011;11821;51.456;8.844;2022-08-26T01:13:43;10.13;;;8.95;;
23304;SDS011;11821;51.456;8.844;2022-08-26T01:16:10;9.98;;;9.07;;
23304;SDS011;11821;51.456;8.844;2022-08-26T01:18:39;10.05;;;9.05;;
23304;SDS011;11821;51.456;8.844;2022-08-26T01:23:47;11.18;;;10.10;;
23304;SDS011;11821;51.456;8.844;2022-08-26T01:26:17;11.85;;;9.90;;
23304;SDS011;11821;51.456;8.844;2022-08-26T01:28:47;10.20;;;9.30;;
23304;SDS011;11821;51.456;8.844;2022-08-26T01:31:16;10.20;;;9.30;;
23304;SDS011;11821;51.456;8.844;2022-08-26T01:34:02;16.60;;;10.00;;
23304;SDS011;11821;51.456;8.844;2022-08-26T01:36:35;12.45;;;9.98;;
23304;SDS011;11821;51.456;8.844;2022-08-26T01:39:06;10.02;;;9.02;;
23304;SDS011;11821;51.456;8.844;2022-08-26T01:41:33;9.73;;;8.85;;
23304;SDS011;11821;51.456;8.844;2022-08-26T01:44:01;14.18;;;10.10;;
23304;SDS011;11821;51.456;8.844;2022-08-26T01:46:29;11.45;;;10.38;;
23304;SDS011;11821;51.456;8.844;2022-08-26T01:48:57;10.40;;;9.45;;
23304;SDS011;11821;51.456;8.844;2022-08-26T01:51:27;11.85;;;9.25;;
23304;SDS011;11821;51.456;8.844;2022-08-26T01:53:54;10.40;;;9.48;;
23304;SDS011;11821;51.456;8.844;2022-08-26T01:56:22;9.77;;;8.98;;
23304;SDS011;11821;51.456;8.844;2022-08-26T01:58:50;10.50;;;9.55;;
23304;SDS011;11821;51.456;8.844;2022-08-26T02:01:20;10.65;;;9.55;;
23304;SDS011;11821;51.456;8.844;2022-08-26T02:04:00;11.95;;;10.65;;
23304;SDS011;11821;51.456;8.844;2022-08-26T02:06:28;11.15;;;10.05;;
23304;SDS011;11821;51.456;8.844;2022-08-26T02:08:55;11.50;;;10.43;;
23304;SDS011;11821;51.456;8.844;2022-08-26T02:11:24;10.90;;;9.77;;
23304;SDS011;11821;51.456;8.844;2022-08-26T02:13:52;11.48;;;10.30;;
23304;SDS011;11821;51.456;8.844;2022-08-26T02:16:23;12.82;;;9.88;;
23304;SDS011;11821;51.456;8.844;2022-08-26T02:18:51;11.63;;;10.52;;
23304;SDS011;11821;51.456;8.844;2022-08-26T02:21:20;12.32;;;9.80;;
23304;SDS011;11821;51.456;8.844;2022-08-26T02:23:46;13.70;;;10.30;;
23304;SDS011;11821;51.456;8.844;2022-08-26T02:26:14;12.30;;;10.00;;
23304;SDS011;11821;51.456;8.844;2022-08-26T02:28:47;13.98;;;10.05;;
23304;SDS011;11821;51.456;8.844;2022-08-26T02:31:15;12.52;;;10.60;;
23304;SDS011;11821;51.456;8.844;2022-08-26T02:33:41;10.07;;;9.15;;
23304;SDS011;11821;51.456;8.844;2022-08-26T02:36:07;12.35;;;10.25;;
23304;SDS011;11821;51.456;8.844;2022-08-26T02:38:34;11.85;;;10.63;;
23304;SDS011;11821;51.456;8.844;2022-08-26T02:41:01;11.73;;;10.43;;
23304;SDS011;11821;51.456;8.844;2022-08-26T02:43:28;13.00;;;9.63;;
23304;SDS011;11821;51.456;8.844;2022-08-26T02:45:54;11.02;;;9.90;;
23304;SDS011;11821;51.456;8.844;2022-08-26T02:48:20;10.43;;;9.32;;
23304;SDS011;11821;51.456;8.844;2022-08-26T02:50:47;10.82;;;9.77;;
23304;SDS011;11821;51.456;8.844;2022-08-26T02:53:14;11.05;;;9.98;;
23304;SDS011;11821;51.456;8.844;2022-08-26T02:55:41;11.32;;;10.15;;
23304;SDS011;11821;51.456;8.844;2022-08-26T02:58:08;11.18;;;10.07;;
23304;SDS011;11821;51.456;8.844;2022-08-26T03:00:36;10.30;;;9.30;;
23304;SDS011;11821;51.456;8.844;2022-08-26T03:03:03;12.02;;;10.27;;
23304;SDS011;11821;51.456;8.844;2022-08-26T03:05:30;11.90;;;10.15;;
23304;SDS011;11821;51.456;8.844;2022-08-26T03:07:56;13.38;;;10.43;;
23304;SDS011;11821;51.456;8.844;2022-08-26T03:10:22;11.20;;;9.63;;
23304;SDS011;11821;51.456;8.844;2022-08-26T03:12:48;15.30;;;10.82;;
23304;SDS011;11821;51.456;8.844;2022-08-26T03:15:15;10.68;;;9.77;;
23304;SDS011;11821;51.456;8.844;2022-08-26T03:17:43;11.23;;;9.73;;
23304;SDS011;11821;51.456;8.844;2022-08-26T03:20:10;10.68;;;9.57;;
23304;SDS011;11821;51.456;8.844;2022-08-26T03:22:37;10.93;;;9.90;;
23304;SDS011;11821;51.456;8.844;2022-08-26T03:25:04;13.60;;;10.02;;
23304;SDS011;11821;51.456;8.844;2022-08-26T03:27:33;14.02;;;9.90;;
23304;SDS011;11821;51.456;8.844;2022-08-26T03:30:00;11.88;;;10.68;;
23304;SDS011;11821;51.456;8.844;2022-08-26T03:32:45;11.45;;;10.40;;
23304;SDS011;11821;51.456;8.844;2022-08-26T03:35:11;10.75;;;9.75;;
23304;SDS011;11821;51.456;8.844;2022-08-26T03:37:37;11.45;;;10.35;;
23304;SDS011;11821;51.456;8.844;2022-08-26T03:40:04;12.75;;;9.88;;
23304;SDS011;11821;51.456;8.844;2022-08-26T03:42:35;11.75;;;10.55;;
23304;SDS011;11821;51.456;8.844;2022-08-26T03:45:04;11.77;;;10.57;;
23304;SDS011;11821;51.456;8.844;2022-08-26T03:47:31;12.00;;;10.90;;
23304;SDS011;11821;51.456;8.844;2022-08-26T03:49:58;11.02;;;10.10;;
23304;SDS011;11821;51.456;8.844;2022-08-26T03:52:25;13.90;;;10.65;;
23304;SDS011;11821;51.456;8.844;2022-08-26T03:54:51;13.30;;;10.38;;
23304;SDS011;11821;51.456;8.844;2022-08-26T03:57:17;11.45;;;10.35;;
23304;SDS011;11821;51.456;8.844;2022-08-26T03:59:43;11.98;;;10.43;;
23304;SDS011;11821;51.456;8.844;2022-08-26T04:02:09;11.52;;;10.43;;
23304;SDS011;11821;51.456;8.844;2022-08-26T04:04:36;14.48;;;11.00;;
23304;SDS011;11821;51.456;8.844;2022-08-26T04:07:02;12.55;;;10.77;;
23304;SDS011;11821;51.456;8.844;2022-08-26T04:09:28;10.52;;;9.02;;
23304;SDS011;11821;51.456;8.844;2022-08-26T04:11:55;11.30;;;10.20;;
23304;SDS011;11821;51.456;8.844;2022-08-26T04:14:24;12.20;;;11.00;;
23304;SDS011;11821;51.456;8.844;2022-08-26T04:16:52;11.27;;;10.27;;
23304;SDS011;11821;51.456;8.844;2022-08-26T04:19:19;11.70;;;10.18;;
23304;SDS011;11821;51.456;8.844;2022-08-26T04:21:47;12.35;;;10.95;;
23304;SDS011;11821;51.456;8.844;2022-08-26T04:24:19;14.07;;;10.52;;
23304;SDS011;11821;51.456;8.844;2022-08-26T04:26:47;11.95;;;10.85;;
23304;SDS011;11821;51.456;8.844;2022-08-26T04:29:15;10.75;;;9.68;;
23304;SDS011;11821;51.456;8.844;2022-08-26T04:31:44;11.07;;;10.02;;
23304;SDS011;11821;51.456;8.844;2022-08-26T04:34:12;11.20;;;10.02;;
23304;SDS011;11821;51.456;8.844;2022-08-26T04:36:39;15.63;;;10.63;;
23304;SDS011;11821;51.456;8.844;2022-08-26T04:39:05;11.10;;;10.00;;
23304;SDS011;11821;51.456;8.844;2022-08-26T04:41:32;11.95;;;10.73;;
23304;SDS011;11821;51.456;8.844;2022-08-26T04:43:58;12.98;;;11.80;;
23304;SDS011;11821;51.456;8.844;2022-08-26T04:46:26;14.13;;;10.63;;
23304;SDS011;11821;51.456;8.844;2022-08-26T04:48:52;12.32;;;11.05;;
23304;SDS011;11821;51.456;8.844;2022-08-26T04:51:19;11.73;;;10.50;;
23304;SDS011;11821;51.456;8.844;2022-08-26T04:54:01;12.52;;;10.63;;
23304;SDS011;11821;51.456;8.844;2022-08-26T04:56:32;11.88;;;10.75;;
23304;SDS011;11821;51.456;8.844;2022-08-26T04:59:01;11.93;;;10.95;;
23304;SDS011;11821;51.456;8.844;2022-08-26T05:01:29;11.77;;;10.77;;
23304;SDS011;11821;51.456;8.844;2022-08-26T05:03:56;13.23;;;11.02;;
23304;SDS011;11821;51.456;8.844;2022-08-26T05:06:23;12.80;;;10.55;;
23304;SDS011;11821;51.456;8.844;2022-08-26T05:08:50;12.48;;;11.18;;
23304;SDS011;11821;51.456;8.844;2022-08-26T05:11:16;14.45;;;11.73;;
23304;SDS011;11821;51.456;8.844;2022-08-26T05:13:42;12.40;;;10.65;;
23304;SDS011;11821;51.456;8.844;2022-08-26T05:16:10;14.43;;;11.93;;
23304;SDS011;11821;51.456;8.844;2022-08-26T05:18:37;15.85;;;11.23;;
23304;SDS011;11821;51.456;8.844;2022-08-26T05:21:05;14.02;;;10.98;;
23304;SDS011;11821;51.456;8.844;2022-08-26T05:23:33;12.30;;;11.10;;
23304;SDS011;11821;51.456;8.844;2022-08-26T05:26:00;13.60;;;11.73;;
23304;SDS011;11821;51.456;8.844;2022-08-26T05:28:27;13.10;;;11.13;;
23304;SDS011;11821;51.456;8.844;2022-08-26T05:30:54;14.60;;;11.70;;
23304;SDS011;11821;51.456;8.844;2022-08-26T05:33:21;12.13;;;10.93;;
23304;SDS011;11821;51.456;8.844;2022-08-26T05:35:47;12.25;;;11.25;;
23304;SDS011;11821;51.456;8.844;2022-08-26T05:38:15;12.43;;;11.23;;
23304;SDS011;11821;51.456;8.844;2022-08-26T05:40:44;11.93;;;10.77;;
23304;SDS011;11821;51.456;8.844;2022-08-26T05:43:13;16.45;;;11.35;;
23304;SDS011;11821;51.456;8.844;2022-08-26T05:45:47;14.52;;;10.80;;
23304;SDS011;11821;51.456;8.844;2022-08-26T05:48:15;14.32;;;10.63;;
23304;SDS011;11821;51.456;8.844;2022-08-26T05:50:44;13.57;;;10.35;;
23304;SDS011;11821;51.456;8.844;2022-08-26T05:53:13;10.98;;;9.88;;
23304;SDS011;11821;51.456;8.844;2022-08-26T05:55:42;12.88;;;11.50;;
23304;SDS011;11821;51.456;8.844;2022-08-26T05:58:17;15.35;;;11.82;;
23304;SDS011;11821;51.456;8.844;2022-08-26T06:00:45;14.10;;;11.88;;
23304;SDS011;11821;51.456;8.844;2022-08-26T06:03:20;12.88;;;11.10;;
23304;SDS011;11821;51.456;8.844;2022-08-26T06:05:46;12.10;;;10.93;;
23304;SDS011;11821;51.456;8.844;2022-08-26T06:08:13;12.50;;;10.48;;
23304;SDS011;11821;51.456;8.844;2022-08-26T06:10:46;11.75;;;10.73;;
23304;SDS011;11821;51.456;8.844;2022-08-26T06:13:21;12.40;;;11.30;;
23304;SDS011;11821;51.456;8.844;2022-08-26T06:15:49;13.68;;;11.23;;
23304;SDS011;11821;51.456;8.844;2022-08-26T06:18:22;15.80;;;11.30;;
23304;SDS011;11821;51.456;8.844;2022-08-26T06:20:57;11.57;;;10.38;;
23304;SDS011;11821;51.456;8.844;2022-08-26T06:23:25;11.57;;;10.57;;
23304;SDS011;11821;51.456;8.844;2022-08-26T06:26:17;16.77;;;11.07;;
23304;SDS011;11821;51.456;8.844;2022-08-26T06:28:43;16.23;;;11.23;;
23304;SDS011;11821;51.456;8.844;2022-08-26T06:31:10;12.95;;;11.60;;
23304;SDS011;11821;51.456;8.844;2022-08-26T06:33:36;17.95;;;11.25;;
23304;SDS011;11821;51.456;8.844;2022-08-26T06:36:03;12.02;;;10.80;;
23304;SDS011;11821;51.456;8.844;2022-08-26T06:38:29;13.43;;;12.10;;
23304;SDS011;11821;51.456;8.844;2022-08-26T06:40:56;12.80;;;11.45;;
23304;SDS011;11821;51.456;8.844;2022-08-26T06:43:23;13.88;;;11.18;;
23304;SDS011;11821;51.456;8.844;2022-08-26T06:45:50;11.60;;;10.40;;
23304;SDS011;11821;51.456;8.844;2022-08-26T06:48:24;13.70;;;11.13;;
23304;SDS011;11821;51.456;8.844;2022-08-26T06:51:00;13.38;;;10.88;;
23304;SDS011;11821;51.456;8.844;2022-08-26T06:53:28;15.07;;;10.20;;
23304;SDS011;11821;51.456;8.844;2022-08-26T06:55:54;11.73;;;10.50;;
23304;SDS011;11821;51.456;8.844;2022-08-26T06:58:21;16.80;;;10.30;;
23304;SDS011;11821;51.456;8.844;2022-08-26T07:00:47;12.23;;;10.50;;
23304;SDS011;11821;51.456;8.844;2022-08-26T07:03:13;13.63;;;10.50;;
23304;SDS011;11821;51.456;8.844;2022-08-26T07:05:39;13.05;;;10.68;;
23304;SDS011;11821;51.456;8.844;2022-08-26T07:08:05;13.02;;;10.80;;
23304;SDS011;11821;51.456;8.844;2022-08-26T07:10:32;11.95;;;10.27;;
23304;SDS011;11821;51.456;8.844;2022-08-26T07:12:58;12.38;;;9.70;;
23304;SDS011;11821;51.456;8.844;2022-08-26T07:15:25;13.43;;;10.10;;
23304;SDS011;11821;51.456;8.844;2022-08-26T07:17:51;16.05;;;10.73;;
23304;SDS011;11821;51.456;8.844;2022-08-26T07:20:17;14.25;;;10.68;;
23304;SDS011;11821;51.456;8.844;2022-08-26T07:22:44;11.80;;;10.55;;
23304;SDS011;11821;51.456;8.844;2022-08-26T07:25:10;11.07;;;10.02;;
23304;SDS011;11821;51.456;8.844;2022-08-26T07:27:36;11.48;;;8.95;;
23304;SDS011;11821;51.456;8.844;2022-08-26T07:30:04;12.70;;;10.35;;
23304;SDS011;11821;51.456;8.844;2022-08-26T07:32:31;11.30;;;10.20;;
23304;SDS011;11821;51.456;8.844;2022-08-26T07:34:58;10.82;;;9.27;;
23304;SDS011;11821;51.456;8.844;2022-08-26T07:37:24;12.88;;;9.00;;
23304;SDS011;11821;51.456;8.844;2022-08-26T07:39:50;14.30;;;9.32;;
23304;SDS011;11821;51.456;8.844;2022-08-26T07:42:17;9.85;;;8.95;;
23304;SDS011;11821;51.456;8.844;2022-08-26T07:44:45;10.82;;;8.30;;
23304;SDS011;11821;51.456;8.844;2022-08-26T07:47:12;16.55;;;9.15;;
23304;SDS011;11821;51.456;8.844;2022-08-26T07:49:38;9.45;;;8.45;;
23304;SDS011;11821;51.456;8.844;2022-08-26T07:52:05;10.10;;;8.60;;
23304;SDS011;11821;51.456;8.844;2022-08-26T07:54:32;11.65;;;8.57;;
23304;SDS011;11821;51.456;8.844;2022-08-26T07:56:58;9.93;;;7.72;;
23304;SDS011;11821;51.456;8.844;2022-08-26T07:59:24;8.77;;;6.95;;
23304;SDS011;11821;51.456;8.844;2022-08-26T08:01:50;7.65;;;7.03;;
23304;SDS011;11821;51.456;8.844;2022-08-26T08:04:17;8.73;;;6.65;;
23304;SDS011;11821;51.456;8.844;2022-08-26T08:06:44;8.07;;;6.88;;
23304;SDS011;11821;51.456;8.844;2022-08-26T08:09:11;9.50;;;7.30;;
23304;SDS011;11821;51.456;8.844;2022-08-26T08:11:38;12.05;;;6.50;;
23304;SDS011;11821;51.456;8.844;2022-08-26T08:14:05;7.28;;;5.97;;
23304;SDS011;11821;51.456;8.844;2022-08-26T08:16:32;9.02;;;6.90;;
23304;SDS011;11821;51.456;8.844;2022-08-26T08:18:59;7.65;;;5.95;;
23304;SDS011;11821;51.456;8.844;2022-08-26T08:21:25;8.73;;;6.97;;
23304;SDS011;11821;51.456;8.844;2022-08-26T08:23:52;6.32;;;5.72;;
23304;SDS011;11821;51.456;8.844;2022-08-26T08:26:20;6.75;;;6.07;;
23304;SDS011;11821;51.456;8.844;2022-08-26T08:28:47;7.65;;;6.95;;
23304;SDS011;11821;51.456;8.844;2022-08-26T08:31:27;7.72;;;7.05;;
23304;SDS011;11821;51.456;8.844;2022-08-26T08:33:55;7.53;;;6.22;;
23304;SDS011;11821;51.456;8.844;2022-08-26T08:36:21;7.93;;;6.65;;
23304;SDS011;11821;51.456;8.844;2022-08-26T08:38:47;7.68;;;6.97;;
23304;SDS011;11821;51.456;8.844;2022-08-26T08:44:32;9.40;;;6.43;;
23304;SDS011;11821;51.456;8.844;2022-08-26T08:47:04;15.60;;;7.43;;
23304;SDS011;11821;51.456;8.844;2022-08-26T08:49:44;7.75;;;6.55;;
23304;SDS011;11821;51.456;8.844;2022-08-26T08:52:25;10.30;;;7.00;;
23304;SDS011;11821;51.456;8.844;2022-08-26T08:54:54;8.35;;;7.60;;
23304;SDS011;11821;51.456;8.844;2022-08-26T08:57:24;8.30;;;6.93;;
23304;SDS011;11821;51.456;8.844;2022-08-26T09:00:03;12.48;;;7.82;;
23304;SDS011;11821;51.456;8.844;2022-08-26T09:05:26;6.97;;;6.38;;
23304;SDS011;11821;51.456;8.844;2022-08-26T09:08:15;11.45;;;6.80;;
23304;SDS011;11821;51.456;8.844;2022-08-26T09:10:48;9.95;;;6.85;;
23304;SDS011;11821;51.456;8.844;2022-08-26T09:13:16;7.82;;;7.13;;
23304;SDS011;11821;51.456;8.844;2022-08-26T09:18:55;7.95;;;7.15;;
23304;SDS011;11821;51.456;8.844;2022-08-26T09:21:32;7.03;;;6.32;;
23304;SDS011;11821;51.456;8.844;2022-08-26T09:23:59;7.20;;;6.50;;
23304;SDS011;11821;51.456;8.844;2022-08-26T09:29:08;11.32;;;7.18;;
23304;SDS011;11821;51.456;8.844;2022-08-26T09:31:44;8.85;;;7.35;;
23304;SDS011;11821;51.456;8.844;2022-08-26T09:36:53;7.82;;;7.10;;
23304;SDS011;11821;51.456;8.844;2022-08-26T09:42:01;9.63;;;8.55;;
23304;SDS011;11821;51.456;8.844;2022-08-26T09:44:28;12.13;;;10.90;;
23304;SDS011;11821;51.456;8.844;2022-08-26T09:46:56;12.18;;;10.93;;
23304;SDS011;11821;51.456;8.844;2022-08-26T09:49:33;14.45;;;12.23;;
23304;SDS011;11821;51.456;8.844;2022-08-26T09:54:45;13.27;;;11.05;;
23304;SDS011;11821;51.456;8.844;2022-08-26T09:57:32;19.00;;;17.10;;
23304;SDS011;11821;51.456;8.844;2022-08-26T10:00:27;16.27;;;14.85;;
23304;SDS011;11821;51.456;8.844;2022-08-26T10:03:01;18.77;;;17.00;;
23304;SDS011;11821;51.456;8.844;2022-08-26T10:11:11;15.63;;;13.55;;
23304;SDS011;11821;51.456;8.844;2022-08-26T10:13:48;16.55;;;15.10;;
23304;SDS011;11821;51.456;8.844;2022-08-26T10:16:20;19.27;;;17.38;;
23304;SDS011;11821;51.456;8.844;2022-08-26T10:19:06;19.35;;;16.95;;
23304;SDS011;11821;51.456;8.844;2022-08-26T10:21:45;21.58;;;18.92;;
23304;SDS011;11821;51.456;8.844;2022-08-26T10:24:22;28.55;;;25.55;;
23304;SDS011;11821;51.456;8.844;2022-08-26T10:27:03;23.80;;;21.35;;
23304;SDS011;11821;51.456;8.844;2022-08-26T10:29:39;28.73;;;24.02;;
23304;SDS011;11821;51.456;8.844;2022-08-26T10:32:45;31.05;;;27.95;;
23304;SDS011;11821;51.456;8.844;2022-08-26T10:35:06;36.28;;;26.02;;
23304;SDS011;11821;51.456;8.844;2022-08-26T10:37:36;31.50;;;26.73;;
23304;SDS011;11821;51.456;8.844;2022-08-26T10:40:07;30.35;;;27.35;;
23304;SDS011;11821;51.456;8.844;2022-08-26T10:42:43;22.10;;;20.08;;
23304;SDS011;11821;51.456;8.844;2022-08-26T10:45:16;28.23;;;24.60;;
23304;SDS011;11821;51.456;8.844;2022-08-26T10:50:30;30.13;;;25.63;;
23304;SDS011;11821;51.456;8.844;2022-08-26T10:58:29;39.03;;;32.15;;
23304;SDS011;11821;51.456;8.844;2022-08-26T11:01:12;35.78;;;32.00;;
23304;SDS011;11821;51.456;8.844;2022-08-26T11:06:31;38.80;;;30.55;;
23304;SDS011;11821;51.456;8.844;2022-08-26T11:08:59;45.58;;;36.85;;
23304;SDS011;11821;51.456;8.844;2022-08-26T11:11:40;33.13;;;28.45;;
23304;SDS011;11821;51.456;8.844;2022-08-26T11:14:07;40.97;;;36.58;;
23304;SDS011;11821;51.456;8.844;2022-08-26T11:16:41;36.45;;;31.40;;
23304;SDS011;11821;51.456;8.844;2022-08-26T11:19:11;44.75;;;37.00;;
23304;SDS011;11821;51.456;8.844;2022-08-26T11:22:03;27.83;;;25.25;;
23304;SDS011;11821;51.456;8.844;2022-08-26T11:34:59;41.42;;;37.03;;
23304;SDS011;11821;51.456;8.844;2022-08-26T11:37:28;34.17;;;29.38;;
23304;SDS011;11821;51.456;8.844;2022-08-26T11:39:59;36.95;;;32.55;;
23304;SDS011;11821;51.456;8.844;2022-08-26T11:45:20;44.97;;;39.33;;
23304;SDS011;11821;51.456;8.844;2022-08-26T11:47:51;47.17;;;40.60;;
23304;SDS011;11821;51.456;8.844;2022-08-26T11:50:26;45.80;;;40.17;;
23304;SDS011;11821;51.456;8.844;2022-08-26T11:52:57;50.80;;;43.63;;
23304;SDS011;11821;51.456;8.844;2022-08-26T11:55:31;50.95;;;43.33;;
23304;SDS011;11821;51.456;8.844;2022-08-26T11:58:01;49.05;;;40.83;;
23304;SDS011;11821;51.456;8.844;2022-08-26T12:00:31;46.15;;;40.60;;
23304;SDS011;11821;51.456;8.844;2022-08-26T12:03:04;41.10;;;36.63;;
23304;SDS011;11821;51.456;8.844;2022-08-26T12:05:42;55.40;;;46.42;;
23304;SDS011;11821;51.456;8.844;2022-08-26T12:08:12;48.55;;;43.42;;
23304;SDS011;11821;51.456;8.844;2022-08-26T12:10:41;54.92;;;47.92;;
23304;SDS011;11821;51.456;8.844;2022-08-26T12:13:16;51.55;;;44.67;;
23304;SDS011;11821;51.456;8.844;2022-08-26T12:15:57;46.88;;;41.80;;
23304;SDS011;11821;51.456;8.844;2022-08-26T12:18:26;48.65;;;43.45;;
23304;SDS011;11821;51.456;8.844;2022-08-26T12:21:09;46.88;;;41.83;;
23304;SDS011;11821;51.456;8.844;2022-08-26T12:23:43;47.95;;;41.42;;
23304;SDS011;11821;51.456;8.844;2022-08-26T12:29:23;45.35;;;38.33;;
23304;SDS011;11821;51.456;8.844;2022-08-26T12:32:05;47.25;;;37.72;;
23304;SDS011;11821;51.456;8.844;2022-08-26T12:34:33;41.03;;;36.70;;
23304;SDS011;11821;51.456;8.844;2022-08-26T12:36:59;41.08;;;36.92;;
23304;SDS011;11821;51.456;8.844;2022-08-26T12:39:27;40.92;;;36.63;;
23304;SDS011;11821;51.456;8.844;2022-08-26T12:41:58;39.83;;;35.83;;
23304;SDS011;11821;51.456;8.844;2022-08-26T12:50:04;39.67;;;35.08;;
23304;SDS011;11821;51.456;8.844;2022-08-26T12:52:33;35.90;;;32.22;;
23304;SDS011;11821;51.456;8.844;2022-08-26T12:55:17;39.78;;;33.22;;
23304;SDS011;11821;51.456;8.844;2022-08-26T12:57:49;36.70;;;32.85;;
23304;SDS011;11821;51.456;8.844;2022-08-26T13:00:35;36.42;;;32.70;;
23304;SDS011;11821;51.456;8.844;2022-08-26T13:03:03;40.45;;;34.80;;
23304;SDS011;11821;51.456;8.844;2022-08-26T13:05:52;35.80;;;30.25;;
23304;SDS011;11821;51.456;8.844;2022-08-26T13:08:32;34.08;;;30.55;;
23304;SDS011;11821;51.456;8.844;2022-08-26T13:11:01;33.58;;;29.90;;
23304;SDS011;11821;51.456;8.844;2022-08-26T13:13:35;30.13;;;26.70;;
23304;SDS011;11821;51.456;8.844;2022-08-26T13:16:02;32.80;;;29.02;;
23304;SDS011;11821;51.456;8.844;2022-08-26T13:18:28;31.05;;;27.98;;
23304;SDS011;11821;51.456;8.844;2022-08-26T13:20:55;24.58;;;21.98;;
23304;SDS011;11821;51.456;8.844;2022-08-26T13:23:22;32.03;;;28.70;;
23304;SDS011;11821;51.456;8.844;2022-08-26T13:25:50;32.25;;;29.25;;
23304;SDS011;11821;51.456;8.844;2022-08-26T13:28:16;33.13;;;29.80;;
23304;SDS011;11821;51.456;8.844;2022-08-26T13:30:43;36.97;;;29.85;;
23304;SDS011;11821;51.456;8.844;2022-08-26T13:33:12;32.50;;;28.98;;
23304;SDS011;11821;51.456;8.844;2022-08-26T13:35:41;31.17;;;27.83;;
23304;SDS011;11821;51.456;8.844;2022-08-26T13:38:07;35.55;;;28.45;;
23304;SDS011;11821;51.456;8.844;2022-08-26T13:40:40;29.40;;;26.15;;
23304;SDS011;11821;51.456;8.844;2022-08-26T13:43:11;33.58;;;30.00;;
23304;SDS011;11821;51.456;8.844;2022-08-26T13:45:37;35.03;;;30.83;;
23304;SDS011;11821;51.456;8.844;2022-08-26T13:48:04;33.38;;;27.10;;
23304;SDS011;11821;51.456;8.844;2022-08-26T13:50:32;35.47;;;30.20;;
23304;SDS011;11821;51.456;8.844;2022-08-26T13:52:59;29.80;;;26.63;;
23304;SDS011;11821;51.456;8.844;2022-08-26T13:55:26;31.00;;;27.70;;
23304;SDS011;11821;51.456;8.844;2022-08-26T13:57:54;29.92;;;26.83;;
23304;SDS011;11821;51.456;8.844;2022-08-26T14:00:21;36.70;;;24.85;;
23304;SDS011;11821;51.456;8.844;2022-08-26T14:02:47;25.30;;;21.73;;
23304;SDS011;11821;51.456;8.844;2022-08-26T14:05:13;25.33;;;23.02;;
23304;SDS011;11821;51.456;8.844;2022-08-26T14:07:40;29.08;;;26.05;;
23304;SDS011;11821;51.456;8.844;2022-08-26T14:10:07;25.65;;;22.83;;
23304;SDS011;11821;51.456;8.844;2022-08-26T14:12:33;26.05;;;23.75;;
23304;SDS011;11821;51.456;8.844;2022-08-26T14:15:00;27.13;;;24.45;;
23304;SDS011;11821;51.456;8.844;2022-08-26T14:17:26;28.65;;;23.65;;
23304;SDS011;11821;51.456;8.844;2022-08-26T14:19:52;26.98;;;24.17;;
23304;SDS011;11821;51.456;8.844;2022-08-26T14:22:19;25.48;;;22.90;;
23304;SDS011;11821;51.456;8.844;2022-08-26T14:24:47;24.20;;;21.55;;
23304;SDS011;11821;51.456;8.844;2022-08-26T14:27:13;26.85;;;22.30;;
23304;SDS011;11821;51.456;8.844;2022-08-26T14:29:40;24.95;;;21.08;;
23304;SDS011;11821;51.456;8.844;2022-08-26T14:32:08;27.02;;;22.35;;
23304;SDS011;11821;51.456;8.844;2022-08-26T14:34:38;22.52;;;20.48;;
23304;SDS011;11821;51.456;8.844;2022-08-26T14:37:06;30.00;;;25.70;;
23304;SDS011;11821;51.456;8.844;2022-08-26T14:39:33;27.00;;;24.17;;
23304;SDS011;11821;51.456;8.844;2022-08-26T14:41:59;25.42;;;22.00;;
23304;SDS011;11821;51.456;8.844;2022-08-26T14:44:27;26.08;;;23.30;;
23304;SDS011;11821;51.456;8.844;2022-08-26T14:46:56;24.05;;;21.48;;
23304;SDS011;11821;51.456;8.844;2022-08-26T14:49:25;22.40;;;20.33;;
23304;SDS011;11821;51.456;8.844;2022-08-26T14:51:52;28.08;;;25.42;;
23304;SDS011;11821;51.456;8.844;2022-08-26T14:54:19;23.35;;;18.42;;
23304;SDS011;11821;51.456;8.844;2022-08-26T14:56:47;26.55;;;23.75;;
23304;SDS011;11821;51.456;8.844;2022-08-26T14:59:14;30.48;;;26.15;;
23304;SDS011;11821;51.456;8.844;2022-08-26T15:01:42;26.10;;;23.08;;
23304;SDS011;11821;51.456;8.844;2022-08-26T15:04:09;25.92;;;21.85;;
23304;SDS011;11821;51.456;8.844;2022-08-26T15:06:35;25.58;;;23.05;;
23304;SDS011;11821;51.456;8.844;2022-08-26T15:09:02;25.25;;;22.58;;
23304;SDS011;11821;51.456;8.844;2022-08-26T15:11:29;26.23;;;23.63;;
23304;SDS011;11821;51.456;8.844;2022-08-26T15:14:04;24.52;;;22.10;;
23304;SDS011;11821;51.456;8.844;2022-08-26T15:16:31;27.75;;;24.98;;
23304;SDS011;11821;51.456;8.844;2022-08-26T15:18:58;28.05;;;23.65;;
23304;SDS011;11821;51.456;8.844;2022-08-26T15:21:24;28.63;;;25.83;;
23304;SDS011;11821;51.456;8.844;2022-08-26T15:23:51;29.65;;;26.58;;
23304;SDS011;11821;51.456;8.844;2022-08-26T15:26:18;28.42;;;24.17;;
23304;SDS011;11821;51.456;8.844;2022-08-26T15:28:45;29.33;;;26.20;;
23304;SDS011;11821;51.456;8.844;2022-08-26T15:31:11;26.52;;;23.77;;
23304;SDS011;11821;51.456;8.844;2022-08-26T15:33:37;32.83;;;25.30;;
23304;SDS011;11821;51.456;8.844;2022-08-26T15:36:05;28.63;;;25.60;;
23304;SDS011;11821;51.456;8.844;2022-08-26T15:38:36;27.80;;;23.02;;
23304;SDS011;11821;51.456;8.844;2022-08-26T15:41:06;27.05;;;24.02;;
23304;SDS011;11821;51.456;8.844;2022-08-26T15:43:33;30.95;;;24.45;;
23304;SDS011;11821;51.456;8.844;2022-08-26T15:46:01;27.52;;;24.48;;